createdAt,value
2023-02-01T00:00:35.614Z,6.50
2023-02-01T00:03:02.990Z,6.50
2023-02-01T00:05:30.035Z,6.50
2023-02-01T00:07:57.186Z,6.50
2023-02-01T00:10:24.503Z,6.40
2023-02-01T00:12:51.740Z,6.50
2023-02-01T00:15:19.183Z,6.50
2023-02-01T00:17:46.319Z,6.50
2023-02-01T00:20:13.516Z,6.50
2023-02-01T00:22:40.672Z,6.50
2023-02-01T00:25:08.154Z,6.50
2023-02-01T00:27:35.197Z,6.50
2023-02-01T00:30:02.271Z,6.50
2023-02-01T00:32:29.311Z,6.50
2023-02-01T00:34:56.353Z,6.50
2023-02-01T00:37:24.266Z,6.50
2023-02-01T00:39:51.523Z,6.60
2023-02-01T00:42:18.572Z,6.50
2023-02-01T00:44:46.557Z,6.60
2023-02-01T00:47:13.599Z,6.60
2023-02-01T00:49:40.609Z,6.60
2023-02-01T00:52:07.630Z,6.60
2023-02-01T00:54:35.674Z,6.60
2023-02-01T00:57:02.733Z,6.60
2023-02-01T00:59:29.897Z,6.60
2023-02-01T01:01:56.940Z,6.60
2023-02-01T01:04:24.049Z,6.60
2023-02-01T01:06:51.106Z,6.60
2023-02-01T01:09:29.342Z,6.60
2023-02-01T01:11:57.975Z,6.70
2023-02-01T01:14:26.296Z,6.60
2023-02-01T01:16:53.423Z,6.70
2023-02-01T01:19:20.612Z,6.70
2023-02-01T01:21:47.706Z,6.70
2023-02-01T01:24:14.774Z,6.70
2023-02-01T01:26:42.006Z,6.70
2023-02-01T01:29:11.446Z,6.70
2023-02-01T01:31:38.576Z,6.70
2023-02-01T01:34:06.065Z,6.80
2023-02-01T01:36:33.415Z,6.70
2023-02-01T01:39:00.675Z,6.70
2023-02-01T01:41:31.840Z,6.70
2023-02-01T01:44:06.653Z,6.70
2023-02-01T01:46:37.428Z,6.60
2023-02-01T01:49:16.711Z,6.60
2023-02-01T01:51:49.550Z,6.50
2023-02-01T01:54:26.862Z,6.50
2023-02-01T01:57:00.355Z,6.40
2023-02-01T01:59:28.125Z,6.40
2023-02-01T02:01:56.578Z,6.40
2023-02-01T02:04:24.863Z,6.30
2023-02-01T02:07:06.424Z,6.30
2023-02-01T02:09:33.609Z,6.30
2023-02-01T02:12:00.715Z,6.30
2023-02-01T02:14:30.881Z,6.30
2023-02-01T02:17:25.405Z,6.30
2023-02-01T02:20:10.676Z,6.30
2023-02-01T02:23:08.801Z,6.30
2023-02-01T02:25:49.857Z,6.30
2023-02-01T02:28:38.611Z,6.30
2023-02-01T02:31:36.587Z,6.30
2023-02-01T02:34:26.597Z,6.30
2023-02-01T02:37:11.038Z,6.30
2023-02-01T02:40:02.699Z,6.30
2023-02-01T02:43:00.794Z,6.30
2023-02-01T02:46:05.730Z,6.30
2023-02-01T02:48:48.710Z,6.30
2023-02-01T02:51:55.201Z,6.30
2023-02-01T02:54:50.105Z,6.30
2023-02-01T02:58:10.692Z,6.30
2023-02-01T03:00:57.465Z,6.30
2023-02-01T03:03:43.018Z,6.30
2023-02-01T03:06:19.691Z,6.30
2023-02-01T03:08:48.984Z,6.30
2023-02-01T03:11:18.405Z,6.30
2023-02-01T03:13:58.683Z,6.30
2023-02-01T03:16:40.781Z,6.30
2023-02-01T03:19:31.021Z,6.30
2023-02-01T03:22:09.152Z,6.20
2023-02-01T03:24:41.544Z,6.30
2023-02-01T03:27:39.486Z,6.30
2023-02-01T03:30:19.003Z,6.30
2023-02-01T03:33:01.054Z,6.30
2023-02-01T03:36:00.046Z,6.20
2023-02-01T03:38:39.447Z,6.20
2023-02-01T03:41:31.508Z,6.20
2023-02-01T03:44:13.475Z,6.20
2023-02-01T03:46:46.905Z,6.20
2023-02-01T03:49:24.087Z,6.20
2023-02-01T03:51:52.633Z,6.10
2023-02-01T03:54:20.683Z,6.20
2023-02-01T03:56:49.553Z,6.20
2023-02-01T03:59:17.278Z,6.10
2023-02-01T04:01:44.473Z,6.10
2023-02-01T04:04:11.608Z,6.10
2023-02-01T04:06:39.995Z,6.10
2023-02-01T04:09:07.051Z,6.10
2023-02-01T04:11:34.232Z,6.10
2023-02-01T04:14:05.313Z,6.10
2023-02-01T04:16:33.291Z,6.10
2023-02-01T04:19:01.001Z,6.10
2023-02-01T04:21:28.571Z,6.10
2023-02-01T04:23:55.806Z,6.10
2023-02-01T04:26:23.031Z,6.10
2023-02-01T04:28:50.050Z,6.10
2023-02-01T04:31:18.408Z,6.10
2023-02-01T04:33:45.589Z,6.10
2023-02-01T04:36:12.643Z,6.10
2023-02-01T04:38:39.686Z,6.10
2023-02-01T04:41:06.675Z,6.10
2023-02-01T04:43:34.882Z,6.10
2023-02-01T04:46:01.950Z,6.10
2023-02-01T04:48:29.148Z,6.10
2023-02-01T04:50:56.311Z,6.10
2023-02-01T04:53:23.486Z,6.10
2023-02-01T04:55:51.320Z,6.20
2023-02-01T04:58:18.418Z,6.20
2023-02-01T05:00:45.463Z,6.20
2023-02-01T05:03:12.508Z,6.20
2023-02-01T05:05:39.592Z,6.20
2023-02-01T05:08:06.668Z,6.20
2023-02-01T05:10:33.982Z,6.20
2023-02-01T05:13:19.459Z,6.20
2023-02-01T05:15:47.276Z,6.20
2023-02-01T05:18:14.493Z,6.20
2023-02-01T05:20:41.475Z,6.20
2023-02-01T05:23:08.542Z,6.20
2023-02-01T05:25:35.537Z,6.20
2023-02-01T05:28:02.631Z,6.20
2023-02-01T05:30:29.786Z,6.20
2023-02-01T05:32:56.813Z,6.20
2023-02-01T05:35:23.739Z,6.20
2023-02-01T05:37:50.856Z,6.20
2023-02-01T05:40:18.138Z,6.30
2023-02-01T05:42:45.173Z,6.20
2023-02-01T05:45:12.331Z,6.30
2023-02-01T05:47:39.333Z,6.30
2023-02-01T05:50:07.118Z,6.30
2023-02-01T05:52:34.673Z,6.30
2023-02-01T05:55:01.677Z,6.30
2023-02-01T05:57:29.637Z,6.30
2023-02-01T05:59:58.612Z,6.30
2023-02-01T06:02:26.698Z,6.30
2023-02-01T06:04:56.151Z,6.30
2023-02-01T06:07:23.184Z,6.30
2023-02-01T06:09:52.522Z,6.30
2023-02-01T06:12:19.537Z,6.30
2023-02-01T06:14:46.536Z,6.30
2023-02-01T06:17:13.558Z,6.30
2023-02-01T06:19:41.645Z,6.40
2023-02-01T06:22:08.676Z,6.30
2023-02-01T06:24:35.724Z,6.40
2023-02-01T06:27:02.872Z,6.40
2023-02-01T06:29:29.956Z,6.40
2023-02-01T06:31:57.018Z,6.40
2023-02-01T06:34:24.148Z,6.40
2023-02-01T06:36:51.250Z,6.40
2023-02-01T06:39:18.319Z,6.40
2023-02-01T06:41:49.455Z,6.50
2023-02-01T06:44:17.732Z,6.50
2023-02-01T06:46:48.367Z,6.50
2023-02-01T06:49:16.358Z,6.50
2023-02-01T06:51:46.083Z,6.50
2023-02-01T06:54:13.283Z,6.50
2023-02-01T06:56:40.454Z,6.50
2023-02-01T06:59:08.413Z,6.50
2023-02-01T07:01:35.683Z,6.50
2023-02-01T07:04:02.753Z,6.60
2023-02-01T07:06:29.855Z,6.60
2023-02-01T07:08:58.072Z,6.60
2023-02-01T07:11:25.558Z,6.60
2023-02-01T07:13:52.603Z,6.60
2023-02-01T07:16:20.989Z,6.60
2023-02-01T07:18:48.522Z,6.60
2023-02-01T07:21:15.479Z,6.70
2023-02-01T07:23:42.615Z,6.70
2023-02-01T07:26:15.674Z,6.70
2023-02-01T07:28:45.139Z,6.70
2023-02-01T07:31:19.907Z,6.70
2023-02-01T07:33:47.418Z,6.80
2023-02-01T07:36:17.577Z,6.80
2023-02-01T07:38:44.845Z,6.80
2023-02-01T07:41:11.982Z,6.80
2023-02-01T07:43:38.970Z,6.90
2023-02-01T07:46:07.205Z,6.90
2023-02-01T07:48:37.420Z,6.90
2023-02-01T07:51:06.038Z,6.90
2023-02-01T07:53:34.052Z,6.90
2023-02-01T07:56:01.557Z,6.90
2023-02-01T07:58:29.428Z,6.90
2023-02-01T08:01:15.849Z,6.90
2023-02-01T08:03:43.180Z,6.90
2023-02-01T08:06:10.239Z,6.90
2023-02-01T08:08:37.256Z,6.90
2023-02-01T08:11:06.355Z,6.90
2023-02-01T08:13:36.199Z,6.90
2023-02-01T08:16:05.977Z,6.90
2023-02-01T08:18:33.663Z,6.90
2023-02-01T08:21:07.480Z,6.90
2023-02-01T08:23:39.388Z,6.90
2023-02-01T08:26:08.526Z,6.90
2023-02-01T08:28:37.780Z,7.00
2023-02-01T08:31:16.094Z,6.90
2023-02-01T08:33:44.495Z,6.90
2023-02-01T08:36:12.465Z,7.00
2023-02-01T08:38:40.713Z,7.00
2023-02-01T08:41:14.212Z,7.00
2023-02-01T08:43:42.101Z,7.00
2023-02-01T08:46:10.452Z,7.00
2023-02-01T08:48:38.385Z,7.00
2023-02-01T08:51:07.431Z,7.10
2023-02-01T08:53:34.684Z,7.10
2023-02-01T08:56:01.904Z,7.10
2023-02-01T08:58:29.049Z,7.10
2023-02-01T09:01:03.332Z,7.10
2023-02-01T09:03:33.287Z,7.10
2023-02-01T09:06:09.190Z,7.10
2023-02-01T09:08:36.953Z,7.20
2023-02-01T09:11:09.323Z,7.20
2023-02-01T09:13:36.647Z,7.20
2023-02-01T09:16:04.735Z,7.20
2023-02-01T09:18:32.016Z,7.30
2023-02-01T09:20:59.094Z,7.30
2023-02-01T09:23:26.375Z,7.40
2023-02-01T09:25:53.672Z,7.40
2023-02-01T09:28:21.036Z,7.50
2023-02-01T09:30:48.408Z,7.50
2023-02-01T09:33:15.513Z,7.50
2023-02-01T09:35:42.538Z,7.60
2023-02-01T09:38:09.561Z,7.60
2023-02-01T09:40:36.774Z,7.60
2023-02-01T09:43:50.173Z,7.70
2023-02-01T09:46:29.453Z,7.70
2023-02-01T09:48:59.707Z,7.70
2023-02-01T09:51:33.698Z,7.80
2023-02-01T09:54:23.213Z,7.80
2023-02-01T09:57:07.465Z,7.80
2023-02-01T10:00:04.697Z,7.90
2023-02-01T10:02:41.113Z,7.90
2023-02-01T10:05:13.608Z,7.90
2023-02-01T10:08:02.160Z,8.00
2023-02-01T10:10:41.853Z,8.00
2023-02-01T10:13:43.874Z,8.00
2023-02-01T10:16:29.272Z,8.10
2023-02-01T10:19:08.599Z,8.10
2023-02-01T10:22:02.663Z,8.20
2023-02-01T10:24:50.301Z,8.20
2023-02-01T10:27:20.323Z,8.20
2023-02-01T10:30:00.962Z,8.20
2023-02-01T10:32:35.653Z,8.20
2023-02-01T10:35:11.145Z,8.20
2023-02-01T10:37:38.095Z,8.20
2023-02-01T10:40:17.549Z,8.20
2023-02-01T10:42:45.486Z,8.30
2023-02-01T10:45:20.314Z,8.20
2023-02-01T10:47:49.327Z,8.30
2023-02-01T10:50:45.330Z,8.30
2023-02-01T10:53:20.984Z,8.30
2023-02-01T10:55:50.841Z,8.30
2023-02-01T10:58:20.617Z,8.30
2023-02-01T11:01:04.977Z,8.30
2023-02-01T11:03:34.217Z,8.30
2023-02-01T11:06:03.640Z,8.30
2023-02-01T11:08:31.119Z,8.30
2023-02-01T11:11:04.038Z,8.30
2023-02-01T11:13:37.691Z,8.40
2023-02-01T11:16:06.124Z,8.40
2023-02-01T11:18:37.759Z,8.40
2023-02-01T11:21:06.972Z,8.40
2023-02-01T11:23:40.154Z,8.40
2023-02-01T11:26:20.747Z,8.50
2023-02-01T11:28:59.160Z,8.50
2023-02-01T11:31:28.457Z,8.50
2023-02-01T11:34:01.586Z,8.50
2023-02-01T11:36:32.665Z,8.50
2023-02-01T11:39:09.746Z,8.50
2023-02-01T11:41:44.304Z,8.50
2023-02-01T11:44:44.558Z,8.50
2023-02-01T11:47:23.664Z,8.50
2023-02-01T11:50:02.311Z,8.50
2023-02-01T11:52:51.434Z,8.40
2023-02-01T11:55:59.856Z,8.40
2023-02-01T11:58:41.920Z,8.40
2023-02-01T12:01:26.333Z,8.40
2023-02-01T12:04:10.235Z,8.40
2023-02-01T12:07:05.294Z,8.40
2023-02-01T12:09:45.553Z,8.40
2023-02-01T12:12:34.193Z,8.50
2023-02-01T12:15:17.464Z,8.50
2023-02-01T12:18:11.316Z,8.50
2023-02-01T12:20:47.178Z,8.50
2023-02-01T12:23:51.234Z,8.60
2023-02-01T12:26:24.020Z,8.60
2023-02-01T12:29:14.029Z,8.60
2023-02-01T12:32:18.487Z,8.60
2023-02-01T12:35:13.244Z,8.60
2023-02-01T12:38:18.060Z,8.70
2023-02-01T12:40:47.773Z,8.70
2023-02-01T12:43:38.065Z,8.70
2023-02-01T12:46:22.346Z,8.70
2023-02-01T12:49:06.384Z,8.70
2023-02-01T12:51:37.906Z,8.70
2023-02-01T12:54:23.077Z,8.70
2023-02-01T12:57:04.081Z,8.70
2023-02-01T12:59:43.515Z,8.70
2023-02-01T13:02:36.672Z,8.70
2023-02-01T13:05:17.762Z,8.80
2023-02-01T13:08:06.319Z,8.80
2023-02-01T13:10:47.095Z,8.80
2023-02-01T13:13:40.037Z,8.80
2023-02-01T13:16:31.426Z,8.80
2023-02-01T13:19:25.640Z,8.80
2023-02-01T13:22:08.871Z,8.70
2023-02-01T13:24:48.124Z,8.70
2023-02-01T13:27:17.175Z,8.70
2023-02-01T13:30:12.725Z,8.70
2023-02-01T13:33:50.298Z,8.70
2023-02-01T13:35:57.218Z,8.70
2023-02-01T13:38:45.956Z,8.70
2023-02-01T13:41:30.862Z,8.70
2023-02-01T13:44:03.040Z,8.60
2023-02-01T13:46:31.276Z,8.60
2023-02-01T13:49:03.128Z,8.60
2023-02-01T13:51:44.142Z,8.60
2023-02-01T13:54:38.037Z,8.50
2023-02-01T13:57:07.502Z,8.50
2023-02-01T14:00:10.853Z,8.50
2023-02-01T14:02:44.372Z,8.50
2023-02-01T14:05:24.114Z,8.50
2023-02-01T14:08:06.860Z,8.50
2023-02-01T14:10:46.453Z,8.60
2023-02-01T14:13:33.580Z,8.60
2023-02-01T14:16:03.864Z,8.60
2023-02-01T14:18:37.502Z,8.60
2023-02-01T14:21:23.573Z,8.60
2023-02-01T14:23:54.136Z,8.60
2023-02-01T14:26:29.065Z,8.60
2023-02-01T14:29:01.301Z,8.60
2023-02-01T14:31:51.391Z,8.60
2023-02-01T14:34:36.465Z,8.70
2023-02-01T14:37:06.990Z,8.70
2023-02-01T14:39:36.585Z,8.70
2023-02-01T14:42:16.132Z,8.70
2023-02-01T14:44:59.281Z,8.70
2023-02-01T14:47:29.786Z,8.70
2023-02-01T14:50:38.639Z,8.70
2023-02-01T14:53:14.513Z,8.70
2023-02-01T14:56:10.231Z,8.70
2023-02-01T14:58:52.463Z,8.70
2023-02-01T15:01:28.334Z,8.70
2023-02-01T15:04:19.423Z,8.70
2023-02-01T15:06:58.338Z,8.60
2023-02-01T15:09:38.835Z,8.70
2023-02-01T15:12:12.103Z,8.70
2023-02-01T15:15:01.225Z,8.60
2023-02-01T15:17:35.332Z,8.70
2023-02-01T15:20:16.285Z,8.60
2023-02-01T15:22:54.507Z,8.60
2023-02-01T15:25:33.357Z,8.60
2023-02-01T15:28:00.728Z,8.60
2023-02-01T15:30:31.073Z,8.60
2023-02-01T15:33:17.972Z,8.60
2023-02-01T15:35:47.823Z,8.60
2023-02-01T15:38:30.274Z,8.60
2023-02-01T15:41:17.840Z,8.60
2023-02-01T15:44:12.746Z,8.50
2023-02-01T15:46:43.671Z,8.50
2023-02-01T15:49:40.054Z,8.50
2023-02-01T15:52:23.220Z,8.50
2023-02-01T15:54:55.814Z,8.50
2023-02-01T15:57:43.327Z,8.50
2023-02-01T16:00:22.600Z,8.50
2023-02-01T16:02:59.136Z,8.50
2023-02-01T16:05:41.422Z,8.40
2023-02-01T16:08:13.419Z,8.50
2023-02-01T16:10:46.727Z,8.40
2023-02-01T16:13:15.759Z,8.40
2023-02-01T16:15:43.648Z,8.40
2023-02-01T16:18:12.699Z,8.40
2023-02-01T16:20:41.845Z,8.40
2023-02-01T16:23:10.484Z,8.40
2023-02-01T16:25:38.793Z,8.40
2023-02-01T16:28:06.612Z,8.40
2023-02-01T16:30:34.447Z,8.40
2023-02-01T16:33:09.636Z,8.40
2023-02-01T16:35:38.590Z,8.40
2023-02-01T16:38:13.804Z,8.40
2023-02-01T16:40:42.555Z,8.40
2023-02-01T16:43:14.274Z,8.40
2023-02-01T16:45:44.284Z,8.40
2023-02-01T16:48:24.052Z,8.40
2023-02-01T16:50:57.232Z,8.30
2023-02-01T16:53:25.825Z,8.30
2023-02-01T16:55:53.440Z,8.30
2023-02-01T16:58:21.797Z,8.40
2023-02-01T17:00:49.493Z,8.40
2023-02-01T17:03:17.630Z,8.40
2023-02-01T17:05:54.165Z,8.40
2023-02-01T17:08:34.800Z,8.40
2023-02-01T17:11:03.161Z,8.40
2023-02-01T17:13:32.940Z,8.40
2023-02-01T17:16:04.216Z,8.30
2023-02-01T17:18:34.683Z,8.30
2023-02-01T17:21:03.935Z,8.30
2023-02-01T17:23:32.970Z,8.30
2023-02-01T17:26:00.160Z,8.30
2023-02-01T17:28:27.259Z,8.30
2023-02-01T17:30:54.397Z,8.30
2023-02-01T17:33:41.719Z,8.20
2023-02-01T17:36:15.516Z,8.20
2023-02-01T17:38:45.561Z,8.20
2023-02-01T17:41:15.098Z,8.20
2023-02-01T17:43:42.247Z,8.20
2023-02-01T17:46:18.894Z,8.20
2023-02-01T17:48:45.962Z,8.20
2023-02-01T17:51:18.406Z,8.20
2023-02-01T17:53:46.264Z,8.20
2023-02-01T17:56:19.498Z,8.20
2023-02-01T17:58:47.714Z,8.10
2023-02-01T18:01:23.699Z,8.10
2023-02-01T18:03:52.083Z,8.10
2023-02-01T18:06:23.922Z,8.10
2023-02-01T18:08:51.419Z,8.10
2023-02-01T18:11:20.974Z,8.10
2023-02-01T18:13:49.358Z,8.10
2023-02-01T18:16:18.978Z,8.10
2023-02-01T18:18:50.198Z,8.10
2023-02-01T18:21:18.877Z,8.10
2023-02-01T18:23:46.300Z,8.10
2023-02-01T18:26:16.415Z,8.10
2023-02-01T18:28:44.139Z,8.10
2023-02-01T18:31:32.319Z,8.10
2023-02-01T18:34:00.504Z,8.10
2023-02-01T18:36:30.519Z,8.10
2023-02-01T18:38:57.896Z,8.10
2023-02-01T18:41:25.541Z,8.10
2023-02-01T18:43:53.409Z,8.10
2023-02-01T18:46:21.947Z,8.10
2023-02-01T18:48:49.198Z,8.10
2023-02-01T18:51:20.572Z,8.10
2023-02-01T18:53:48.979Z,8.10
2023-02-01T18:56:18.221Z,8.10
2023-02-01T18:58:45.529Z,8.10
2023-02-01T19:01:30.682Z,8.10
2023-02-01T19:04:07.782Z,8.10
2023-02-01T19:06:44.707Z,8.10
2023-02-01T19:09:11.678Z,8.10
2023-02-01T19:11:38.629Z,8.10
2023-02-01T19:14:05.811Z,8.10
2023-02-01T19:16:39.741Z,8.10
2023-02-01T19:19:06.750Z,8.10
2023-02-01T19:21:33.759Z,8.10
2023-02-01T19:24:00.898Z,8.10
2023-02-01T19:26:27.974Z,8.10
2023-02-01T19:28:57.560Z,8.10
2023-02-01T19:31:28.063Z,8.10
2023-02-01T19:33:55.306Z,8.10
2023-02-01T19:36:22.493Z,8.10
2023-02-01T19:38:49.477Z,8.10
2023-02-01T19:41:16.629Z,8.20
2023-02-01T19:43:44.750Z,8.10
2023-02-01T19:46:11.838Z,8.20
2023-02-01T19:48:39.062Z,8.10
2023-02-01T19:51:06.422Z,8.10
2023-02-01T19:53:33.426Z,8.20
2023-02-01T19:56:01.932Z,8.20
2023-02-01T19:58:28.997Z,8.20
2023-02-01T20:00:56.435Z,8.20
2023-02-01T20:03:24.368Z,8.20
2023-02-01T20:05:56.698Z,8.20
2023-02-01T20:08:24.285Z,8.20
2023-02-01T20:10:51.851Z,8.20
2023-02-01T20:13:19.044Z,8.20
2023-02-01T20:15:46.201Z,8.20
2023-02-01T20:18:13.663Z,8.20
2023-02-01T20:20:41.799Z,8.10
2023-02-01T20:23:09.273Z,8.20
2023-02-01T20:25:38.344Z,8.10
2023-02-01T20:28:05.693Z,8.10
2023-02-01T20:30:33.987Z,8.10
2023-02-01T20:33:01.101Z,8.10
2023-02-01T20:35:29.245Z,8.10
2023-02-01T20:37:57.381Z,8.10
2023-02-01T20:40:26.933Z,8.10
2023-02-01T20:42:54.349Z,8.10
2023-02-01T20:45:21.590Z,8.00
2023-02-01T20:47:54.953Z,8.10
2023-02-01T20:50:22.246Z,8.00
2023-02-01T20:52:49.417Z,8.10
2023-02-01T20:55:16.827Z,8.00
2023-02-01T20:57:43.930Z,8.10
2023-02-01T21:00:13.649Z,8.10
2023-02-01T21:02:40.805Z,8.10
2023-02-01T21:05:08.740Z,8.10
2023-02-01T21:07:37.551Z,8.10
2023-02-01T21:10:05.798Z,8.10
2023-02-01T21:12:33.081Z,8.00
2023-02-01T21:15:00.429Z,8.00
2023-02-01T21:17:29.679Z,8.00
2023-02-01T21:19:57.061Z,8.00
2023-02-01T21:22:24.135Z,8.00
2023-02-01T21:24:51.253Z,8.00
2023-02-01T21:27:19.021Z,8.00
2023-02-01T21:29:46.571Z,8.00
2023-02-01T21:32:13.698Z,8.00
2023-02-01T21:34:40.732Z,8.00
2023-02-01T21:37:08.501Z,8.00
2023-02-01T21:39:35.560Z,8.00
2023-02-01T21:42:14.401Z,8.00
2023-02-01T21:44:41.932Z,8.00
2023-02-01T21:47:10.936Z,8.00
2023-02-01T21:49:41.087Z,8.10
2023-02-01T21:52:13.867Z,8.10
2023-02-01T21:54:41.233Z,8.10
2023-02-01T21:57:12.143Z,8.10
2023-02-01T21:59:40.942Z,8.10
2023-02-01T22:02:16.245Z,8.10
2023-02-01T22:04:44.055Z,8.10
2023-02-01T22:07:11.577Z,8.10
2023-02-01T22:09:39.188Z,8.10
2023-02-01T22:12:11.789Z,8.10
2023-02-01T22:14:44.742Z,8.20
2023-02-01T22:17:13.235Z,8.20
2023-02-01T22:19:41.566Z,8.20
2023-02-01T22:22:08.864Z,8.20
2023-02-01T22:24:36.120Z,8.20
2023-02-01T22:27:13.718Z,8.20
2023-02-01T22:29:44.021Z,8.20
2023-02-01T22:32:13.284Z,8.20
2023-02-01T22:34:40.550Z,8.20
2023-02-01T22:37:07.565Z,8.20
2023-02-01T22:39:34.811Z,8.20
2023-02-01T22:42:01.871Z,8.20
2023-02-01T22:44:28.838Z,8.20
2023-02-01T22:46:55.883Z,8.20
2023-02-01T22:49:22.933Z,8.20
2023-02-01T22:51:51.995Z,8.20
2023-02-01T22:54:24.182Z,8.20
2023-02-01T22:56:51.326Z,8.10
2023-02-01T22:59:18.523Z,8.10
2023-02-01T23:01:45.598Z,8.20
2023-02-01T23:04:15.157Z,8.10
2023-02-01T23:06:42.379Z,8.10
2023-02-01T23:09:25.201Z,8.10
2023-02-01T23:11:53.176Z,8.10
2023-02-01T23:14:20.536Z,8.00
2023-02-01T23:16:49.751Z,8.10
2023-02-01T23:19:18.530Z,8.10
2023-02-01T23:21:45.758Z,8.00
2023-02-01T23:24:13.146Z,8.00
2023-02-01T23:26:40.971Z,8.00
2023-02-01T23:29:08.077Z,8.00
2023-02-01T23:31:35.869Z,8.00
2023-02-01T23:34:04.477Z,8.00
2023-02-01T23:36:33.746Z,8.00
2023-02-01T23:39:01.870Z,8.00
2023-02-01T23:41:30.249Z,8.00
2023-02-01T23:44:00.131Z,8.00
2023-02-01T23:46:45.569Z,8.00
2023-02-01T23:49:14.878Z,8.00
2023-02-01T23:51:42.413Z,8.00
2023-02-01T23:54:11.590Z,8.00
2023-02-01T23:56:41.181Z,8.00
2023-02-01T23:59:18.518Z,8.00
